sensor_id;sensor_type;location;lat;lon;timestamp;temperature;humidity
66096;SHT31;53861;53.422;14.530;2023-03-23T00:01:40;11.23;78.07
66096;SHT31;53861;53.422;14.530;2023-03-23T00:04:08;11.16;78.29
66096;SHT31;53861;53.422;14.530;2023-03-23T00:06:38;11.13;78.93
66096;SHT31;53861;53.422;14.530;2023-03-23T00:09:07;11.10;78.50
66096;SHT31;53861;53.422;14.530;2023-03-23T00:11:35;11.03;78.93
66096;SHT31;53861;53.422;14.530;2023-03-23T00:14:03;10.98;78.86
66096;SHT31;53861;53.422;14.530;2023-03-23T00:16:41;10.98;78.74
66096;SHT31;53861;53.422;14.530;2023-03-23T00:19:10;11.15;78.09
66096;SHT31;53861;53.422;14.530;2023-03-23T00:21:44;11.10;77.95
66096;SHT31;53861;53.422;14.530;2023-03-23T00:24:13;11.06;77.94
66096;SHT31;53861;53.422;14.530;2023-03-23T00:26:44;10.98;78.20
66096;SHT31;53861;53.422;14.530;2023-03-23T00:29:14;10.93;78.46
66096;SHT31;53861;53.422;14.530;2023-03-23T00:31:46;10.91;78.76
66096;SHT31;53861;53.422;14.530;2023-03-23T00:34:15;10.85;79.09
66096;SHT31;53861;53.422;14.530;2023-03-23T00:36:48;10.86;79.58
66096;SHT31;53861;53.422;14.530;2023-03-23T00:39:17;10.79;79.37
66096;SHT31;53861;53.422;14.530;2023-03-23T00:41:45;10.91;78.79
66096;SHT31;53861;53.422;14.530;2023-03-23T00:44:13;10.98;78.20
66096;SHT31;53861;53.422;14.530;2023-03-23T00:46:49;10.93;78.30
66096;SHT31;53861;53.422;14.530;2023-03-23T00:49:20;10.88;78.84
66096;SHT31;53861;53.422;14.530;2023-03-23T00:51:52;10.91;78.68
66096;SHT31;53861;53.422;14.530;2023-03-23T00:54:20;10.93;78.27
66096;SHT31;53861;53.422;14.530;2023-03-23T00:56:53;10.82;79.41
66096;SHT31;53861;53.422;14.530;2023-03-23T00:59:41;10.73;79.11
66096;SHT31;53861;53.422;14.530;2023-03-23T01:02:14;10.71;79.29
66096;SHT31;53861;53.422;14.530;2023-03-23T01:04:50;10.73;79.03
66096;SHT31;53861;53.422;14.530;2023-03-23T01:07:18;10.78;78.65
66096;SHT31;53861;53.422;14.530;2023-03-23T01:09:47;10.86;78.36
66096;SHT31;53861;53.422;14.530;2023-03-23T01:12:18;10.76;78.65
66096;SHT31;53861;53.422;14.530;2023-03-23T01:14:48;10.80;78.59
66096;SHT31;53861;53.422;14.530;2023-03-23T01:17:18;10.73;78.74
66096;SHT31;53861;53.422;14.530;2023-03-23T01:19:47;10.68;78.90
66096;SHT31;53861;53.422;14.530;2023-03-23T01:22:18;10.80;78.57
66096;SHT31;53861;53.422;14.530;2023-03-23T01:24:46;10.85;78.28
66096;SHT31;53861;53.422;14.530;2023-03-23T01:27:15;10.79;78.35
66096;SHT31;53861;53.422;14.530;2023-03-23T01:29:45;10.79;78.25
66096;SHT31;53861;53.422;14.530;2023-03-23T01:32:13;10.76;78.39
66096;SHT31;53861;53.422;14.530;2023-03-23T01:34:43;10.73;78.57
66096;SHT31;53861;53.422;14.530;2023-03-23T01:37:13;10.78;78.67
66096;SHT31;53861;53.422;14.530;2023-03-23T01:39:42;10.80;78.71
66096;SHT31;53861;53.422;14.530;2023-03-23T01:42:10;10.83;78.60
66096;SHT31;53861;53.422;14.530;2023-03-23T01:47:57;10.93;78.90
66096;SHT31;53861;53.422;14.530;2023-03-23T01:50:33;10.98;78.07
66096;SHT31;53861;53.422;14.530;2023-03-23T01:53:06;11.03;77.87
66096;SHT31;53861;53.422;14.530;2023-03-23T01:55:37;11.03;77.84
66096;SHT31;53861;53.422;14.530;2023-03-23T01:58:10;10.99;77.70
66096;SHT31;53861;53.422;14.530;2023-03-23T02:00:39;11.03;77.46
66096;SHT31;53861;53.422;14.530;2023-03-23T02:03:09;10.92;78.10
66096;SHT31;53861;53.422;14.530;2023-03-23T02:05:44;10.89;77.81
66096;SHT31;53861;53.422;14.530;2023-03-23T02:08:14;10.88;78.20
66096;SHT31;53861;53.422;14.530;2023-03-23T02:10:47;10.92;78.09
66096;SHT31;53861;53.422;14.530;2023-03-23T02:13:18;10.92;78.08
66096;SHT31;53861;53.422;14.530;2023-03-23T02:16:01;10.89;78.48
66096;SHT31;53861;53.422;14.530;2023-03-23T02:18:43;10.96;77.48
66096;SHT31;53861;53.422;14.530;2023-03-23T02:21:37;11.03;77.17
66096;SHT31;53861;53.422;14.530;2023-03-23T02:24:42;10.96;77.32
66096;SHT31;53861;53.422;14.530;2023-03-23T02:27:17;10.89;77.95
66096;SHT31;53861;53.422;14.530;2023-03-23T02:30:15;10.96;77.60
66096;SHT31;53861;53.422;14.530;2023-03-23T02:33:16;10.99;77.62
66096;SHT31;53861;53.422;14.530;2023-03-23T02:35:57;10.95;77.85
66096;SHT31;53861;53.422;14.530;2023-03-23T02:38:30;10.95;78.08
66096;SHT31;53861;53.422;14.530;2023-03-23T02:41:02;11.02;77.32
66096;SHT31;53861;53.422;14.530;2023-03-23T02:43:34;10.99;77.43
66096;SHT31;53861;53.422;14.530;2023-03-23T02:46:08;11.00;77.62
66096;SHT31;53861;53.422;14.530;2023-03-23T02:48:43;10.96;77.65
66096;SHT31;53861;53.422;14.530;2023-03-23T02:51:12;10.92;77.83
66096;SHT31;53861;53.422;14.530;2023-03-23T02:53:43;10.92;78.12
66096;SHT31;53861;53.422;14.530;2023-03-23T02:56:13;10.96;77.38
66096;SHT31;53861;53.422;14.530;2023-03-23T02:58:41;10.92;77.55
66096;SHT31;53861;53.422;14.530;2023-03-23T03:01:48;10.95;77.94
66096;SHT31;53861;53.422;14.530;2023-03-23T03:04:22;10.82;78.23
66096;SHT31;53861;53.422;14.530;2023-03-23T03:07:00;10.85;77.90
66096;SHT31;53861;53.422;14.530;2023-03-23T03:09:36;10.89;78.03
66096;SHT31;53861;53.422;14.530;2023-03-23T03:12:12;10.82;78.25
66096;SHT31;53861;53.422;14.530;2023-03-23T03:14:48;10.88;78.28
66096;SHT31;53861;53.422;14.530;2023-03-23T03:17:24;10.83;78.28
66096;SHT31;53861;53.422;14.530;2023-03-23T03:19:57;10.80;77.97
66096;SHT31;53861;53.422;14.530;2023-03-23T03:22:38;10.82;78.18
66096;SHT31;53861;53.422;14.530;2023-03-23T03:25:09;10.89;78.42
66096;SHT31;53861;53.422;14.530;2023-03-23T03:27:40;10.92;78.05
66096;SHT31;53861;53.422;14.530;2023-03-23T03:30:18;10.85;78.80
66096;SHT31;53861;53.422;14.530;2023-03-23T03:32:52;10.76;79.04
66096;SHT31;53861;53.422;14.530;2023-03-23T03:35:23;10.76;80.41
66096;SHT31;53861;53.422;14.530;2023-03-23T03:37:53;10.65;80.80
66096;SHT31;53861;53.422;14.530;2023-03-23T03:40:22;10.62;81.32
66096;SHT31;53861;53.422;14.530;2023-03-23T03:42:52;10.59;81.67
66096;SHT31;53861;53.422;14.530;2023-03-23T03:45:20;10.47;82.58
66096;SHT31;53861;53.422;14.530;2023-03-23T03:47:48;10.41;83.09
66096;SHT31;53861;53.422;14.530;2023-03-23T03:50:19;10.33;83.70
66096;SHT31;53861;53.422;14.530;2023-03-23T03:52:49;10.35;83.44
66096;SHT31;53861;53.422;14.530;2023-03-23T03:55:20;10.41;83.51
66096;SHT31;53861;53.422;14.530;2023-03-23T03:57:53;10.37;84.42
66096;SHT31;53861;53.422;14.530;2023-03-23T04:00:21;10.38;84.17
66096;SHT31;53861;53.422;14.530;2023-03-23T04:02:50;10.37;84.98
66096;SHT31;53861;53.422;14.530;2023-03-23T04:05:23;10.34;85.21
66096;SHT31;53861;53.422;14.530;2023-03-23T04:07:52;10.22;86.00
66096;SHT31;53861;53.422;14.530;2023-03-23T04:10:20;10.18;86.31
66096;SHT31;53861;53.422;14.530;2023-03-23T04:12:48;10.13;86.66
66096;SHT31;53861;53.422;14.530;2023-03-23T04:15:22;10.16;86.68
66096;SHT31;53861;53.422;14.530;2023-03-23T04:17:50;10.14;86.93
66096;SHT31;53861;53.422;14.530;2023-03-23T04:20:23;10.14;87.66
66096;SHT31;53861;53.422;14.530;2023-03-23T04:22:55;10.20;87.27
66096;SHT31;53861;53.422;14.530;2023-03-23T04:25:23;10.16;87.73
66096;SHT31;53861;53.422;14.530;2023-03-23T04:27:52;10.13;88.41
66096;SHT31;53861;53.422;14.530;2023-03-23T04:30:24;10.11;88.34
66096;SHT31;53861;53.422;14.530;2023-03-23T04:32:56;10.07;88.96
66096;SHT31;53861;53.422;14.530;2023-03-23T04:35:26;9.97;89.55
66096;SHT31;53861;53.422;14.530;2023-03-23T04:37:56;9.98;89.82
66096;SHT31;53861;53.422;14.530;2023-03-23T04:40:25;10.06;89.45
66096;SHT31;53861;53.422;14.530;2023-03-23T04:42:52;10.04;89.56
66096;SHT31;53861;53.422;14.530;2023-03-23T04:45:23;9.89;90.26
66096;SHT31;53861;53.422;14.530;2023-03-23T04:47:51;9.90;90.35
66096;SHT31;53861;53.422;14.530;2023-03-23T04:50:27;9.94;90.52
66096;SHT31;53861;53.422;14.530;2023-03-23T04:52:58;9.97;90.73
66096;SHT31;53861;53.422;14.530;2023-03-23T04:55:31;9.93;90.94
66096;SHT31;53861;53.422;14.530;2023-03-23T04:58:02;9.80;91.72
66096;SHT31;53861;53.422;14.530;2023-03-23T05:00:30;9.87;91.60
66096;SHT31;53861;53.422;14.530;2023-03-23T05:02:58;9.90;91.37
66096;SHT31;53861;53.422;14.530;2023-03-23T05:05:27;9.91;91.56
66096;SHT31;53861;53.422;14.530;2023-03-23T05:08:00;9.90;91.56
66096;SHT31;53861;53.422;14.530;2023-03-23T05:10:28;10.00;91.42
66096;SHT31;53861;53.422;14.530;2023-03-23T05:12:58;9.98;91.53
66096;SHT31;53861;53.422;14.530;2023-03-23T05:15:26;9.93;91.81
66096;SHT31;53861;53.422;14.530;2023-03-23T05:17:54;9.93;91.76
66096;SHT31;53861;53.422;14.530;2023-03-23T05:23:07;9.90;92.17
66096;SHT31;53861;53.422;14.530;2023-03-23T05:25:36;9.84;92.12
66096;SHT31;53861;53.422;14.530;2023-03-23T05:28:22;9.86;92.03
66096;SHT31;53861;53.422;14.530;2023-03-23T05:31:01;9.80;92.50
66096;SHT31;53861;53.422;14.530;2023-03-23T05:33:29;9.87;92.21
66096;SHT31;53861;53.422;14.530;2023-03-23T05:35:57;9.87;92.43
66096;SHT31;53861;53.422;14.530;2023-03-23T05:38:26;9.79;92.67
66096;SHT31;53861;53.422;14.530;2023-03-23T05:40:58;9.87;92.61
66096;SHT31;53861;53.422;14.530;2023-03-23T05:43:27;9.89;92.37
66096;SHT31;53861;53.422;14.530;2023-03-23T05:45:55;9.90;92.39
66096;SHT31;53861;53.422;14.530;2023-03-23T05:48:26;9.79;92.61
66096;SHT31;53861;53.422;14.530;2023-03-23T05:50:57;9.83;92.63
66096;SHT31;53861;53.422;14.530;2023-03-23T05:53:26;9.79;92.97
66096;SHT31;53861;53.422;14.530;2023-03-23T05:55:58;9.84;92.76
66096;SHT31;53861;53.422;14.530;2023-03-23T05:58:26;9.75;92.86
66096;SHT31;53861;53.422;14.530;2023-03-23T06:00:53;9.77;92.80
66096;SHT31;53861;53.422;14.530;2023-03-23T06:03:24;9.77;92.93
66096;SHT31;53861;53.422;14.530;2023-03-23T06:05:52;9.77;92.76
66096;SHT31;53861;53.422;14.530;2023-03-23T06:08:21;9.70;92.82
66096;SHT31;53861;53.422;14.530;2023-03-23T06:10:50;9.70;93.10
66096;SHT31;53861;53.422;14.530;2023-03-23T06:13:20;9.77;93.01
66096;SHT31;53861;53.422;14.530;2023-03-23T06:15:48;9.79;93.00
66096;SHT31;53861;53.422;14.530;2023-03-23T06:18:16;9.83;92.85
66096;SHT31;53861;53.422;14.530;2023-03-23T06:20:44;9.75;93.27
66096;SHT31;53861;53.422;14.530;2023-03-23T06:23:12;9.75;92.69
66096;SHT31;53861;53.422;14.530;2023-03-23T06:25:42;9.72;93.20
66096;SHT31;53861;53.422;14.530;2023-03-23T06:28:11;9.72;93.56
66096;SHT31;53861;53.422;14.530;2023-03-23T06:30:39;9.73;93.69
66096;SHT31;53861;53.422;14.530;2023-03-23T06:33:07;9.75;93.62
66096;SHT31;53861;53.422;14.530;2023-03-23T06:35:36;9.83;93.15
66096;SHT31;53861;53.422;14.530;2023-03-23T06:38:03;9.80;93.38
66096;SHT31;53861;53.422;14.530;2023-03-23T06:40:36;9.79;93.73
66096;SHT31;53861;53.422;14.530;2023-03-23T06:43:04;9.77;93.49
66096;SHT31;53861;53.422;14.530;2023-03-23T06:45:33;9.77;93.68
66096;SHT31;53861;53.422;14.530;2023-03-23T06:48:04;9.87;93.58
66096;SHT31;53861;53.422;14.530;2023-03-23T06:50:32;9.91;93.55
66096;SHT31;53861;53.422;14.530;2023-03-23T06:53:00;9.97;93.52
66096;SHT31;53861;53.422;14.530;2023-03-23T06:55:28;9.93;93.58
66096;SHT31;53861;53.422;14.530;2023-03-23T06:58:07;9.98;93.75
66096;SHT31;53861;53.422;14.530;2023-03-23T07:00:37;9.97;93.62
66096;SHT31;53861;53.422;14.530;2023-03-23T07:03:12;10.07;93.59
66096;SHT31;53861;53.422;14.530;2023-03-23T07:05:42;10.08;93.24
66096;SHT31;53861;53.422;14.530;2023-03-23T07:08:14;10.01;93.50
66096;SHT31;53861;53.422;14.530;2023-03-23T07:10:46;10.06;93.69
66096;SHT31;53861;53.422;14.530;2023-03-23T07:13:16;10.07;93.44
66096;SHT31;53861;53.422;14.530;2023-03-23T07:15:45;10.11;93.47
66096;SHT31;53861;53.422;14.530;2023-03-23T07:18:14;10.18;93.44
66096;SHT31;53861;53.422;14.530;2023-03-23T07:20:47;10.13;93.82
66096;SHT31;53861;53.422;14.530;2023-03-23T07:23:16;10.16;93.54
66096;SHT31;53861;53.422;14.530;2023-03-23T07:25:44;10.21;93.43
66096;SHT31;53861;53.422;14.530;2023-03-23T07:28:11;10.22;93.40
66096;SHT31;53861;53.422;14.530;2023-03-23T07:30:39;10.22;93.62
66096;SHT31;53861;53.422;14.530;2023-03-23T07:33:09;10.21;93.49
66096;SHT31;53861;53.422;14.530;2023-03-23T07:35:36;10.28;93.28
66096;SHT31;53861;53.422;14.530;2023-03-23T07:38:04;10.27;93.80
66096;SHT31;53861;53.422;14.530;2023-03-23T07:40:32;10.27;93.91
66096;SHT31;53861;53.422;14.530;2023-03-23T07:43:01;10.34;93.58
66096;SHT31;53861;53.422;14.530;2023-03-23T07:45:30;10.30;93.63
66096;SHT31;53861;53.422;14.530;2023-03-23T07:47:58;10.38;93.56
66096;SHT31;53861;53.422;14.530;2023-03-23T07:50:27;10.40;93.67
66096;SHT31;53861;53.422;14.530;2023-03-23T07:52:55;10.44;93.97
66096;SHT31;53861;53.422;14.530;2023-03-23T07:55:24;10.47;94.00
66096;SHT31;53861;53.422;14.530;2023-03-23T07:57:53;10.48;93.70
66096;SHT31;53861;53.422;14.530;2023-03-23T08:00:22;10.51;93.82
66096;SHT31;53861;53.422;14.530;2023-03-23T08:02:51;10.49;93.61
66096;SHT31;53861;53.422;14.530;2023-03-23T08:05:19;10.58;93.52
66096;SHT31;53861;53.422;14.530;2023-03-23T08:07:49;10.59;93.45
66096;SHT31;53861;53.422;14.530;2023-03-23T08:10:17;10.57;93.67
66096;SHT31;53861;53.422;14.530;2023-03-23T08:12:45;10.61;93.56
66096;SHT31;53861;53.422;14.530;2023-03-23T08:15:13;10.64;93.40
66096;SHT31;53861;53.422;14.530;2023-03-23T08:17:46;10.72;93.61
66096;SHT31;53861;53.422;14.530;2023-03-23T08:20:13;10.80;92.81
66096;SHT31;53861;53.422;14.530;2023-03-23T08:22:44;10.83;92.64
66096;SHT31;53861;53.422;14.530;2023-03-23T08:25:14;10.80;92.96
66096;SHT31;53861;53.422;14.530;2023-03-23T08:27:43;10.89;92.85
66096;SHT31;53861;53.422;14.530;2023-03-23T08:30:12;10.79;92.67
66096;SHT31;53861;53.422;14.530;2023-03-23T08:32:39;10.75;92.53
66096;SHT31;53861;53.422;14.530;2023-03-23T08:35:08;10.83;92.68
66096;SHT31;53861;53.422;14.530;2023-03-23T08:37:37;10.71;93.08
66096;SHT31;53861;53.422;14.530;2023-03-23T08:40:07;10.68;93.15
66096;SHT31;53861;53.422;14.530;2023-03-23T08:42:38;10.71;92.77
66096;SHT31;53861;53.422;14.530;2023-03-23T08:45:07;10.76;92.76
66096;SHT31;53861;53.422;14.530;2023-03-23T08:47:35;10.72;92.75
66096;SHT31;53861;53.422;14.530;2023-03-23T08:50:03;10.83;92.94
66096;SHT31;53861;53.422;14.530;2023-03-23T08:52:31;10.91;92.58
66096;SHT31;53861;53.422;14.530;2023-03-23T08:54:59;10.92;92.61
66096;SHT31;53861;53.422;14.530;2023-03-23T08:57:26;10.93;92.04
66096;SHT31;53861;53.422;14.530;2023-03-23T08:59:56;10.95;92.22
66096;SHT31;53861;53.422;14.530;2023-03-23T09:02:28;11.03;92.66
66096;SHT31;53861;53.422;14.530;2023-03-23T09:04:57;11.13;91.90
66096;SHT31;53861;53.422;14.530;2023-03-23T09:07:26;11.03;91.68
66096;SHT31;53861;53.422;14.530;2023-03-23T09:09:53;11.12;91.65
66096;SHT31;53861;53.422;14.530;2023-03-23T09:12:20;11.18;91.38
66096;SHT31;53861;53.422;14.530;2023-03-23T09:14:49;11.33;91.44
66096;SHT31;53861;53.422;14.530;2023-03-23T09:17:18;11.29;91.08
66096;SHT31;53861;53.422;14.530;2023-03-23T09:19:45;11.31;90.92
66096;SHT31;53861;53.422;14.530;2023-03-23T09:22:12;11.49;91.41
66096;SHT31;53861;53.422;14.530;2023-03-23T09:24:41;11.51;91.51
66096;SHT31;53861;53.422;14.530;2023-03-23T09:27:08;11.66;91.22
66096;SHT31;53861;53.422;14.530;2023-03-23T09:29:36;11.81;90.49
66096;SHT31;53861;53.422;14.530;2023-03-23T09:32:03;12.06;90.24
66096;SHT31;53861;53.422;14.530;2023-03-23T09:34:32;12.45;88.76
66096;SHT31;53861;53.422;14.530;2023-03-23T09:37:01;12.89;88.01
66096;SHT31;53861;53.422;14.530;2023-03-23T09:39:30;14.25;85.03
66096;SHT31;53861;53.422;14.530;2023-03-23T09:42:12;15.61;80.82
66096;SHT31;53861;53.422;14.530;2023-03-23T09:44:51;17.65;80.97
66096;SHT31;53861;53.422;14.530;2023-03-23T09:47:28;17.51;73.89
66096;SHT31;53861;53.422;14.530;2023-03-23T09:50:02;17.63;74.79
66096;SHT31;53861;53.422;14.530;2023-03-23T09:52:40;17.29;71.15
66096;SHT31;53861;53.422;14.530;2023-03-23T09:55:11;16.99;73.61
66096;SHT31;53861;53.422;14.530;2023-03-23T09:57:45;16.64;76.88
66096;SHT31;53861;53.422;14.530;2023-03-23T10:00:18;17.04;72.18
66096;SHT31;53861;53.422;14.530;2023-03-23T10:02:49;16.84;73.55
66096;SHT31;53861;53.422;14.530;2023-03-23T10:05:29;17.73;72.10
66096;SHT31;53861;53.422;14.530;2023-03-23T10:07:57;19.79;68.84
66096;SHT31;53861;53.422;14.530;2023-03-23T10:10:34;21.04;66.65
66096;SHT31;53861;53.422;14.530;2023-03-23T10:13:11;21.12;65.27
66096;SHT31;53861;53.422;14.530;2023-03-23T10:15:43;21.23;65.63
66096;SHT31;53861;53.422;14.530;2023-03-23T10:18:16;20.39;65.01
66096;SHT31;53861;53.422;14.530;2023-03-23T10:20:48;19.22;65.21
66096;SHT31;53861;53.422;14.530;2023-03-23T10:23:36;19.30;66.83
66096;SHT31;53861;53.422;14.530;2023-03-23T10:26:16;19.31;69.86
66096;SHT31;53861;53.422;14.530;2023-03-23T10:28:48;18.42;67.40
66096;SHT31;53861;53.422;14.530;2023-03-23T10:31:22;18.12;69.91
66096;SHT31;53861;53.422;14.530;2023-03-23T10:33:52;18.10;71.22
66096;SHT31;53861;53.422;14.530;2023-03-23T10:36:24;18.14;68.59
66096;SHT31;53861;53.422;14.530;2023-03-23T10:38:56;17.86;69.94
66096;SHT31;53861;53.422;14.530;2023-03-23T10:41:24;17.93;67.95
66096;SHT31;53861;53.422;14.530;2023-03-23T10:43:52;18.99;70.31
66096;SHT31;53861;53.422;14.530;2023-03-23T10:46:29;18.15;70.35
66096;SHT31;53861;53.422;14.530;2023-03-23T10:49:02;17.79;69.59
66096;SHT31;53861;53.422;14.530;2023-03-23T10:51:35;17.91;69.80
66096;SHT31;53861;53.422;14.530;2023-03-23T10:54:04;17.32;69.60
66096;SHT31;53861;53.422;14.530;2023-03-23T10:56:36;17.89;70.53
66096;SHT31;53861;53.422;14.530;2023-03-23T10:59:15;19.00;66.58
66096;SHT31;53861;53.422;14.530;2023-03-23T11:01:53;18.48;69.42
66096;SHT31;53861;53.422;14.530;2023-03-23T11:04:22;18.35;67.60
66096;SHT31;53861;53.422;14.530;2023-03-23T11:06:53;19.71;65.26
66096;SHT31;53861;53.422;14.530;2023-03-23T11:09:34;19.61;64.49
66096;SHT31;53861;53.422;14.530;2023-03-23T11:12:02;20.26;65.79
66096;SHT31;53861;53.422;14.530;2023-03-23T11:14:31;19.09;67.77
66096;SHT31;53861;53.422;14.530;2023-03-23T11:17:00;19.06;65.15
66096;SHT31;53861;53.422;14.530;2023-03-23T11:19:29;18.91;65.87
66096;SHT31;53861;53.422;14.530;2023-03-23T11:22:05;18.63;67.01
66096;SHT31;53861;53.422;14.530;2023-03-23T11:24:35;18.42;69.58
66096;SHT31;53861;53.422;14.530;2023-03-23T11:27:04;18.37;67.58
66096;SHT31;53861;53.422;14.530;2023-03-23T11:29:36;18.18;68.29
66096;SHT31;53861;53.422;14.530;2023-03-23T11:32:28;18.31;67.36
66096;SHT31;53861;53.422;14.530;2023-03-23T11:34:58;18.35;67.12
66096;SHT31;53861;53.422;14.530;2023-03-23T11:37:32;17.94;68.71
66096;SHT31;53861;53.422;14.530;2023-03-23T11:40:02;17.60;70.21
66096;SHT31;53861;53.422;14.530;2023-03-23T11:42:38;16.96;70.03
66096;SHT31;53861;53.422;14.530;2023-03-23T11:45:15;16.65;70.45
66096;SHT31;53861;53.422;14.530;2023-03-23T11:47:51;16.77;72.59
66096;SHT31;53861;53.422;14.530;2023-03-23T11:50:24;16.92;71.21
66096;SHT31;53861;53.422;14.530;2023-03-23T11:53:00;16.85;71.59
66096;SHT31;53861;53.422;14.530;2023-03-23T11:55:35;16.64;72.80
66096;SHT31;53861;53.422;14.530;2023-03-23T11:58:10;16.44;72.13
66096;SHT31;53861;53.422;14.530;2023-03-23T12:00:43;16.17;72.44
66096;SHT31;53861;53.422;14.530;2023-03-23T12:03:35;16.09;72.99
66096;SHT31;53861;53.422;14.530;2023-03-23T12:06:07;15.83;71.80
66096;SHT31;53861;53.422;14.530;2023-03-23T12:08:50;16.04;72.56
66096;SHT31;53861;53.422;14.530;2023-03-23T12:11:27;15.86;73.16
66096;SHT31;53861;53.422;14.530;2023-03-23T12:14:04;15.96;73.81
66096;SHT31;53861;53.422;14.530;2023-03-23T12:16:47;16.02;72.03
66096;SHT31;53861;53.422;14.530;2023-03-23T12:19:25;16.12;72.17
66096;SHT31;53861;53.422;14.530;2023-03-23T12:21:59;15.87;72.39
66096;SHT31;53861;53.422;14.530;2023-03-23T12:24:41;15.82;72.38
66096;SHT31;53861;53.422;14.530;2023-03-23T12:27:15;16.00;73.78
66096;SHT31;53861;53.422;14.530;2023-03-23T12:30:15;16.17;70.21
66096;SHT31;53861;53.422;14.530;2023-03-23T12:32:54;16.04;70.78
66096;SHT31;53861;53.422;14.530;2023-03-23T12:35:34;15.83;70.32
66096;SHT31;53861;53.422;14.530;2023-03-23T12:38:13;15.62;71.56
66096;SHT31;53861;53.422;14.530;2023-03-23T12:41:01;15.83;71.52
66096;SHT31;53861;53.422;14.530;2023-03-23T12:43:37;15.97;69.56
66096;SHT31;53861;53.422;14.530;2023-03-23T12:46:20;16.03;70.65
66096;SHT31;53861;53.422;14.530;2023-03-23T12:48:54;15.93;70.05
66096;SHT31;53861;53.422;14.530;2023-03-23T12:51:25;15.95;70.46
66096;SHT31;53861;53.422;14.530;2023-03-23T12:53:57;15.92;70.11
66096;SHT31;53861;53.422;14.530;2023-03-23T12:56:31;15.81;69.73
66096;SHT31;53861;53.422;14.530;2023-03-23T12:59:05;15.76;70.23
66096;SHT31;53861;53.422;14.530;2023-03-23T13:01:37;15.93;71.61
66096;SHT31;53861;53.422;14.530;2023-03-23T13:04:09;15.92;71.33
66096;SHT31;53861;53.422;14.530;2023-03-23T13:06:39;16.00;70.72
66096;SHT31;53861;53.422;14.530;2023-03-23T13:09:13;15.70;70.38
66096;SHT31;53861;53.422;14.530;2023-03-23T13:11:44;15.39;72.10
66096;SHT31;53861;53.422;14.530;2023-03-23T13:14:24;15.38;71.69
66096;SHT31;53861;53.422;14.530;2023-03-23T13:17:06;15.66;71.52
66096;SHT31;53861;53.422;14.530;2023-03-23T13:19:59;15.79;70.18
66096;SHT31;53861;53.422;14.530;2023-03-23T13:22:32;15.73;70.28
66096;SHT31;53861;53.422;14.530;2023-03-23T13:25:06;15.97;70.55
66096;SHT31;53861;53.422;14.530;2023-03-23T13:27:37;15.72;71.12
66096;SHT31;53861;53.422;14.530;2023-03-23T13:30:18;15.99;70.20
66096;SHT31;53861;53.422;14.530;2023-03-23T13:32:48;16.50;68.82
66096;SHT31;53861;53.422;14.530;2023-03-23T13:35:18;16.43;69.70
66096;SHT31;53861;53.422;14.530;2023-03-23T13:37:50;17.30;69.23
66096;SHT31;53861;53.422;14.530;2023-03-23T13:40:24;17.49;67.49
66096;SHT31;53861;53.422;14.530;2023-03-23T13:42:56;17.26;68.18
66096;SHT31;53861;53.422;14.530;2023-03-23T13:45:43;16.72;69.39
66096;SHT31;53861;53.422;14.530;2023-03-23T13:48:22;16.72;66.98
66096;SHT31;53861;53.422;14.530;2023-03-23T13:50:52;16.38;68.33
66096;SHT31;53861;53.422;14.530;2023-03-23T13:53:26;16.10;68.87
66096;SHT31;53861;53.422;14.530;2023-03-23T13:56:13;15.87;69.68
66096;SHT31;53861;53.422;14.530;2023-03-23T13:58:49;15.73;69.97
66096;SHT31;53861;53.422;14.530;2023-03-23T14:01:19;15.65;69.73
66096;SHT31;53861;53.422;14.530;2023-03-23T14:04:00;15.62;69.91
66096;SHT31;53861;53.422;14.530;2023-03-23T14:06:33;15.90;69.99
66096;SHT31;53861;53.422;14.530;2023-03-23T14:09:04;16.06;68.22
66096;SHT31;53861;53.422;14.530;2023-03-23T14:11:32;16.13;70.94
66096;SHT31;53861;53.422;14.530;2023-03-23T14:14:21;16.03;69.19
66096;SHT31;53861;53.422;14.530;2023-03-23T14:16:51;15.79;69.08
66096;SHT31;53861;53.422;14.530;2023-03-23T14:19:23;15.65;70.20
66096;SHT31;53861;53.422;14.530;2023-03-23T14:21:53;15.76;69.65
66096;SHT31;53861;53.422;14.530;2023-03-23T14:24:24;15.59;70.51
66096;SHT31;53861;53.422;14.530;2023-03-23T14:26:54;15.51;71.18
66096;SHT31;53861;53.422;14.530;2023-03-23T14:29:32;15.46;71.18
66096;SHT31;53861;53.422;14.530;2023-03-23T14:32:04;15.14;73.93
66096;SHT31;53861;53.422;14.530;2023-03-23T14:34:36;14.97;74.19
66096;SHT31;53861;53.422;14.530;2023-03-23T14:37:04;14.83;75.20
66096;SHT31;53861;53.422;14.530;2023-03-23T14:39:33;14.79;76.90
66096;SHT31;53861;53.422;14.530;2023-03-23T14:42:05;14.63;78.68
66096;SHT31;53861;53.422;14.530;2023-03-23T14:44:39;14.60;78.42
66096;SHT31;53861;53.422;14.530;2023-03-23T14:47:15;14.28;78.34
66096;SHT31;53861;53.422;14.530;2023-03-23T14:49:43;13.88;80.36
66096;SHT31;53861;53.422;14.530;2023-03-23T14:52:12;13.53;81.21
66096;SHT31;53861;53.422;14.530;2023-03-23T14:54:40;13.07;83.12
66096;SHT31;53861;53.422;14.530;2023-03-23T14:57:12;12.82;84.88
66096;SHT31;53861;53.422;14.530;2023-03-23T14:59:42;12.60;86.34
66096;SHT31;53861;53.422;14.530;2023-03-23T15:02:12;12.59;87.13
66096;SHT31;53861;53.422;14.530;2023-03-23T15:04:40;12.49;87.40
66096;SHT31;53861;53.422;14.530;2023-03-23T15:07:10;12.43;87.46
66096;SHT31;53861;53.422;14.530;2023-03-23T15:09:42;12.31;88.14
66096;SHT31;53861;53.422;14.530;2023-03-23T15:12:20;12.48;87.96
66096;SHT31;53861;53.422;14.530;2023-03-23T15:14:51;12.50;87.55
66096;SHT31;53861;53.422;14.530;2023-03-23T15:17:20;12.60;87.58
66096;SHT31;53861;53.422;14.530;2023-03-23T15:19:50;12.69;87.82
66096;SHT31;53861;53.422;14.530;2023-03-23T15:22:22;12.80;87.39
66096;SHT31;53861;53.422;14.530;2023-03-23T15:24:53;12.94;87.03
66096;SHT31;53861;53.422;14.530;2023-03-23T15:27:29;12.92;86.64
66096;SHT31;53861;53.422;14.530;2023-03-23T15:30:00;12.80;87.08
66096;SHT31;53861;53.422;14.530;2023-03-23T15:32:30;12.80;86.92
66096;SHT31;53861;53.422;14.530;2023-03-23T15:35:11;12.46;86.74
66096;SHT31;53861;53.422;14.530;2023-03-23T15:37:46;12.50;88.07
66096;SHT31;53861;53.422;14.530;2023-03-23T15:40:20;12.56;88.21
66096;SHT31;53861;53.422;14.530;2023-03-23T15:42:50;12.60;87.14
66096;SHT31;53861;53.422;14.530;2023-03-23T15:45:36;12.86;87.69
66096;SHT31;53861;53.422;14.530;2023-03-23T15:48:14;12.87;87.31
66096;SHT31;53861;53.422;14.530;2023-03-23T15:50:42;12.97;84.94
66096;SHT31;53861;53.422;14.530;2023-03-23T15:53:31;12.83;84.49
66096;SHT31;53861;53.422;14.530;2023-03-23T15:56:01;12.90;85.47